createdAt,value
2023-03-05T00:01:30.003Z,10.83
2023-03-05T00:03:58.823Z,9.07
2023-03-05T00:06:28.359Z,5.60
2023-03-05T00:08:58.451Z,4.60
2023-03-05T00:11:30.081Z,13.03
2023-03-05T00:13:59.368Z,8.77
2023-03-05T00:16:28.856Z,7.03
2023-03-05T00:18:58.236Z,9.13
2023-03-05T00:21:27.936Z,8.47
2023-03-05T00:23:56.788Z,9.07
2023-03-05T00:26:26.594Z,9.03
2023-03-05T00:28:56.654Z,8.40
2023-03-05T00:31:26.076Z,11.50
2023-03-05T00:33:54.887Z,6.17
2023-03-05T00:36:24.509Z,6.50
2023-03-05T00:38:53.043Z,10.90
2023-03-05T00:41:21.588Z,6.03
2023-03-05T00:43:50.248Z,14.80
2023-03-05T00:46:20.140Z,11.33
2023-03-05T00:48:48.565Z,6.43
2023-03-05T00:51:17.013Z,8.60
2023-03-05T00:53:45.476Z,7.77
2023-03-05T00:56:13.955Z,8.20
2023-03-05T00:58:42.486Z,8.75
2023-03-05T01:01:10.938Z,7.63
2023-03-05T01:03:40.803Z,6.43
2023-03-05T01:06:10.762Z,8.00
2023-03-05T01:08:39.577Z,7.37
2023-03-05T01:11:08.674Z,9.97
2023-03-05T01:13:37.118Z,15.63
2023-03-05T01:16:06.166Z,7.82
2023-03-05T01:18:34.704Z,7.47
2023-03-05T01:21:05.500Z,9.03
2023-03-05T01:23:34.485Z,8.93
2023-03-05T01:26:02.963Z,12.10
2023-03-05T01:28:32.469Z,8.87
2023-03-05T01:31:00.957Z,4.70
2023-03-05T01:33:29.536Z,6.57
2023-03-05T01:35:58.060Z,12.77
2023-03-05T01:38:27.948Z,13.10
2023-03-05T01:40:56.381Z,8.40
2023-03-05T01:43:26.222Z,6.87
2023-03-05T01:46:13.491Z,8.37
2023-03-05T01:48:42.716Z,8.27
2023-03-05T01:51:11.209Z,7.90
2023-03-05T01:53:41.079Z,9.27
2023-03-05T01:56:09.687Z,13.20
2023-03-05T01:58:39.819Z,10.30
2023-03-05T02:01:08.594Z,9.97
2023-03-05T02:03:37.331Z,7.43
2023-03-05T02:06:06.044Z,9.60
2023-03-05T02:08:34.565Z,16.43
2023-03-05T02:11:04.418Z,8.90
2023-03-05T02:13:35.704Z,8.37
2023-03-05T02:16:04.348Z,6.63
2023-03-05T02:18:32.794Z,8.20
2023-03-05T02:21:04.979Z,11.13
2023-03-05T02:23:36.500Z,12.20
2023-03-05T02:26:05.213Z,8.50
2023-03-05T02:28:35.237Z,11.27
2023-03-05T02:31:03.679Z,11.50
2023-03-05T02:33:32.097Z,9.13
2023-03-05T02:36:00.590Z,9.70
2023-03-05T02:38:30.467Z,9.23
2023-03-05T02:40:58.907Z,7.77
2023-03-05T02:43:27.622Z,9.17
2023-03-05T02:45:56.114Z,11.70
2023-03-05T02:48:24.645Z,15.23
2023-03-05T02:50:53.402Z,10.27
2023-03-05T02:53:23.134Z,9.17
2023-03-05T02:55:52.981Z,10.17
2023-03-05T02:58:21.424Z,8.47
2023-03-05T03:00:50.031Z,7.63
2023-03-05T03:03:18.551Z,6.30
2023-03-05T03:05:47.024Z,8.33
2023-03-05T03:08:15.786Z,8.27
2023-03-05T03:10:44.279Z,9.67
2023-03-05T03:13:14.131Z,5.93
2023-03-05T03:15:42.583Z,10.43
2023-03-05T03:18:11.063Z,8.70
2023-03-05T03:20:39.887Z,6.93
2023-03-05T03:23:08.410Z,10.13
2023-03-05T03:25:36.938Z,14.30
2023-03-05T03:28:05.425Z,14.67
2023-03-05T03:30:35.360Z,11.63
2023-03-05T03:33:03.947Z,8.83
2023-03-05T03:35:32.407Z,8.87
2023-03-05T03:38:00.887Z,7.93
2023-03-05T03:40:29.481Z,11.83
2023-03-05T03:42:57.997Z,9.27
2023-03-05T03:45:27.164Z,9.73
2023-03-05T03:47:56.937Z,11.30
2023-03-05T03:50:26.189Z,9.83
2023-03-05T03:52:54.655Z,5.60
2023-03-05T03:55:23.089Z,8.80
2023-03-05T03:57:51.496Z,12.13
2023-03-05T04:00:20.458Z,9.70
2023-03-05T04:02:48.994Z,12.67
2023-03-05T04:05:19.397Z,10.07
2023-03-05T04:07:47.849Z,9.17
2023-03-05T04:10:16.373Z,9.30
2023-03-05T04:12:46.266Z,10.00
2023-03-05T04:15:14.701Z,6.73
2023-03-05T04:17:43.123Z,7.93
2023-03-05T04:20:12.524Z,5.83
2023-03-05T04:22:44.284Z,8.13
2023-03-05T04:25:12.765Z,8.40
2023-03-05T04:27:41.261Z,9.83
2023-03-05T04:30:10.403Z,7.23
2023-03-05T04:32:38.911Z,8.80
2023-03-05T04:35:07.535Z,10.80
2023-03-05T04:37:36.008Z,8.70
2023-03-05T04:40:06.316Z,9.23
2023-03-05T04:42:34.751Z,6.23
2023-03-05T04:45:03.225Z,9.13
2023-03-05T04:47:31.692Z,8.17
2023-03-05T04:50:00.128Z,11.83
2023-03-05T04:52:28.596Z,10.97
2023-03-05T04:54:57.019Z,4.73
2023-03-05T04:57:26.834Z,6.23
2023-03-05T04:59:55.361Z,7.17
2023-03-05T05:02:23.824Z,10.50
2023-03-05T05:04:54.451Z,7.47
2023-03-05T05:07:23.143Z,8.50
2023-03-05T05:09:51.660Z,6.33
2023-03-05T05:12:20.091Z,5.67
2023-03-05T05:14:49.890Z,6.50
2023-03-05T05:17:18.328Z,6.50
2023-03-05T05:19:46.767Z,8.60
2023-03-05T05:22:15.218Z,8.17
2023-03-05T05:24:43.644Z,15.13
2023-03-05T05:27:12.101Z,6.67
2023-03-05T05:29:40.716Z,6.03
2023-03-05T05:32:10.792Z,11.40
2023-03-05T05:34:39.206Z,7.93
2023-03-05T05:37:07.639Z,7.47
2023-03-05T05:39:37.199Z,10.50
2023-03-05T05:42:05.780Z,14.90
2023-03-05T05:44:34.924Z,9.53
2023-03-05T05:47:03.412Z,9.07
2023-03-05T05:49:33.447Z,5.63
2023-03-05T05:52:01.887Z,6.77
2023-03-05T05:54:30.322Z,10.97
2023-03-05T05:56:58.784Z,7.87
2023-03-05T05:59:27.979Z,9.07
2023-03-05T06:01:56.462Z,4.80
2023-03-05T06:04:24.893Z,8.03
2023-03-05T06:06:54.766Z,9.70
2023-03-05T06:09:23.185Z,10.33
2023-03-05T06:11:51.594Z,6.93
2023-03-05T06:14:20.030Z,8.43
2023-03-05T06:16:48.609Z,7.47
2023-03-05T06:19:17.703Z,6.37
2023-03-05T06:21:46.245Z,9.20
2023-03-05T06:24:16.109Z,7.67
2023-03-05T06:26:46.670Z,8.70
2023-03-05T06:29:15.456Z,7.40
2023-03-05T06:31:43.873Z,9.07
2023-03-05T06:34:12.751Z,9.40
2023-03-05T06:36:42.250Z,9.23
2023-03-05T06:39:10.679Z,10.13
2023-03-05T06:41:40.460Z,6.83
2023-03-05T06:44:08.966Z,7.63
2023-03-05T06:46:39.174Z,6.47
2023-03-05T06:49:09.526Z,9.10
2023-03-05T06:51:39.504Z,8.87
2023-03-05T06:54:09.078Z,10.43
2023-03-05T06:56:38.585Z,9.60
2023-03-05T06:59:08.638Z,11.70
2023-03-05T07:01:37.252Z,13.77
2023-03-05T07:04:06.858Z,7.27
2023-03-05T07:06:36.287Z,9.60
2023-03-05T07:09:05.802Z,12.00
2023-03-05T07:11:35.170Z,8.03
2023-03-05T07:14:03.630Z,11.13
2023-03-05T07:16:34.529Z,10.03
2023-03-05T07:19:04.316Z,10.57
2023-03-05T07:21:34.404Z,12.33
2023-03-05T07:24:04.245Z,9.57
2023-03-05T07:26:33.461Z,11.47
2023-03-05T07:29:02.208Z,9.83
2023-03-05T07:31:31.947Z,8.93
2023-03-05T07:34:03.283Z,10.00
2023-03-05T07:36:32.328Z,14.17
2023-03-05T07:39:00.816Z,5.77
2023-03-05T07:41:29.229Z,12.97
2023-03-05T07:43:57.644Z,8.00
2023-03-05T07:46:27.272Z,10.50
2023-03-05T07:48:56.381Z,10.07
2023-03-05T07:51:27.076Z,9.30
2023-03-05T07:53:57.543Z,9.60
2023-03-05T07:56:26.685Z,12.80
2023-03-05T07:58:55.163Z,10.83
2023-03-05T08:01:23.555Z,9.33
2023-03-05T08:03:52.023Z,11.07
2023-03-05T08:06:20.454Z,11.33
2023-03-05T08:08:50.382Z,8.27
2023-03-05T08:11:19.008Z,8.63
2023-03-05T08:13:47.584Z,14.03
2023-03-05T08:16:16.848Z,10.70
2023-03-05T08:18:45.473Z,11.57
2023-03-05T08:21:18.055Z,11.07
2023-03-05T08:23:51.127Z,16.27
2023-03-05T08:26:20.709Z,10.07
2023-03-05T08:28:49.199Z,9.63
2023-03-05T08:31:19.154Z,11.60
2023-03-05T08:33:47.676Z,11.37
2023-03-05T08:36:16.154Z,12.97
2023-03-05T08:38:46.805Z,11.43
2023-03-05T08:41:17.190Z,11.80
2023-03-05T08:43:45.769Z,10.10
2023-03-05T08:46:17.281Z,9.73
2023-03-05T08:48:46.113Z,10.53
2023-03-05T08:51:15.298Z,11.13
2023-03-05T08:53:44.478Z,13.57
2023-03-05T08:56:13.413Z,10.63
2023-03-05T08:58:43.446Z,11.83
2023-03-05T09:01:12.794Z,14.57
2023-03-05T09:03:41.537Z,11.33
2023-03-05T09:06:12.316Z,12.53
2023-03-05T09:08:41.087Z,11.80
2023-03-05T09:11:10.427Z,15.13
2023-03-05T09:13:38.904Z,11.60
2023-03-05T09:16:13.457Z,12.93
2023-03-05T09:18:42.843Z,11.50
2023-03-05T09:21:11.775Z,16.33
2023-03-05T09:23:40.267Z,16.40
2023-03-05T09:26:09.356Z,11.70
2023-03-05T09:28:37.932Z,10.10
2023-03-05T09:31:07.494Z,13.80
2023-03-05T09:33:37.425Z,12.17
2023-03-05T09:36:06.709Z,14.23
2023-03-05T09:38:36.433Z,15.60
2023-03-05T09:41:07.917Z,15.93
2023-03-05T09:43:44.385Z,14.03
2023-03-05T09:46:20.611Z,16.37
2023-03-05T09:48:54.378Z,19.40
2023-03-05T09:51:24.885Z,15.53
2023-03-05T09:53:56.543Z,11.57
2023-03-05T09:56:26.157Z,14.20
2023-03-05T09:58:57.318Z,14.77
2023-03-05T10:01:29.670Z,13.07
2023-03-05T10:04:01.600Z,13.20
2023-03-05T10:06:31.944Z,13.90
2023-03-05T10:09:05.138Z,10.32
2023-03-05T10:11:41.933Z,12.35
2023-03-05T10:14:15.277Z,12.05
2023-03-05T10:17:05.586Z,9.83
2023-03-05T10:19:43.235Z,9.30
2023-03-05T10:22:16.356Z,10.10
2023-03-05T10:24:50.840Z,10.87
2023-03-05T10:27:21.863Z,13.02
2023-03-05T10:29:57.820Z,11.27
2023-03-05T10:32:33.740Z,11.70
2023-03-05T10:35:14.383Z,11.02
2023-03-05T10:37:53.510Z,7.22
2023-03-05T10:40:25.050Z,9.65
2023-03-05T10:42:56.084Z,8.68
2023-03-05T10:45:26.350Z,7.27
2023-03-05T10:47:57.523Z,9.73
2023-03-05T10:50:28.282Z,9.55
2023-03-05T10:53:04.592Z,7.18
2023-03-05T10:55:33.040Z,5.32
2023-03-05T10:58:03.035Z,6.15
2023-03-05T11:00:32.311Z,7.73
2023-03-05T11:03:02.427Z,6.43
2023-03-05T11:05:42.064Z,6.88
2023-03-05T11:08:25.257Z,9.55
2023-03-05T11:11:04.675Z,9.57
2023-03-05T11:13:33.852Z,13.68
2023-03-05T11:16:02.712Z,8.15
2023-03-05T11:18:34.584Z,6.63
2023-03-05T11:21:10.813Z,8.40
2023-03-05T11:23:39.271Z,9.75
2023-03-05T11:26:18.534Z,5.78
2023-03-05T11:28:58.906Z,6.78
2023-03-05T11:31:28.653Z,17.17
2023-03-05T11:33:58.415Z,10.40
2023-03-05T11:36:29.611Z,11.55
2023-03-05T11:38:59.877Z,7.75
2023-03-05T11:41:34.206Z,5.47
2023-03-05T11:44:05.695Z,4.97
2023-03-05T11:46:39.086Z,6.50
2023-03-05T11:49:08.475Z,6.75
2023-03-05T11:51:42.854Z,4.55
2023-03-05T11:54:16.108Z,6.10
2023-03-05T11:56:45.054Z,5.85
2023-03-05T11:59:15.743Z,5.45
2023-03-05T12:01:45.564Z,5.93
2023-03-05T12:04:14.252Z,5.07
2023-03-05T12:06:46.241Z,3.45
2023-03-05T12:09:17.731Z,5.25
2023-03-05T12:11:46.939Z,4.38
2023-03-05T12:14:20.177Z,5.30
2023-03-05T12:16:50.248Z,3.97
2023-03-05T12:19:34.589Z,4.07
2023-03-05T12:22:04.756Z,3.58
2023-03-05T12:24:38.480Z,4.65
2023-03-05T12:27:15.873Z,3.17
2023-03-05T12:29:45.969Z,6.13
2023-03-05T12:32:33.249Z,8.45
2023-03-05T12:35:04.362Z,6.03
2023-03-05T12:37:51.852Z,7.22
2023-03-05T12:40:25.097Z,10.80
2023-03-05T12:42:54.774Z,4.65
2023-03-05T12:45:41.347Z,5.00
2023-03-05T12:48:28.586Z,2.75
2023-03-05T12:51:00.102Z,3.72
2023-03-05T12:53:28.601Z,4.25
2023-03-05T12:56:02.035Z,3.63
2023-03-05T12:58:36.580Z,7.00
2023-03-05T13:01:08.992Z,4.05
2023-03-05T13:03:38.758Z,7.03
2023-03-05T13:06:08.310Z,6.60
2023-03-05T13:08:37.851Z,7.82
2023-03-05T13:11:10.052Z,4.20
2023-03-05T13:13:39.836Z,2.75
2023-03-05T13:16:18.073Z,3.00
2023-03-05T13:18:47.894Z,4.00
2023-03-05T13:21:17.647Z,3.35
2023-03-05T13:23:50.263Z,3.45
2023-03-05T13:26:20.635Z,4.15
2023-03-05T13:29:04.799Z,3.60
2023-03-05T13:31:33.439Z,5.50
2023-03-05T13:34:09.454Z,4.97
2023-03-05T13:36:39.378Z,2.95
2023-03-05T13:39:07.900Z,3.70
2023-03-05T13:41:37.832Z,4.78
2023-03-05T13:44:06.267Z,7.10
2023-03-05T13:46:35.647Z,9.15
2023-03-05T13:49:20.421Z,11.93
2023-03-05T13:51:50.371Z,6.07
2023-03-05T13:54:19.149Z,9.00
2023-03-05T13:56:53.423Z,5.95
2023-03-05T13:59:22.536Z,4.38
2023-03-05T14:01:52.320Z,5.38
2023-03-05T14:04:22.425Z,8.00
2023-03-05T14:06:52.146Z,3.75
2023-03-05T14:09:22.721Z,6.15
2023-03-05T14:11:56.646Z,6.88
2023-03-05T14:14:25.779Z,13.88
2023-03-05T14:16:54.310Z,13.80
2023-03-05T14:19:43.559Z,10.82
2023-03-05T14:22:30.740Z,7.45
2023-03-05T14:24:59.197Z,7.38
2023-03-05T14:27:30.390Z,6.22
2023-03-05T14:29:58.920Z,9.90
2023-03-05T14:32:31.732Z,9.30
2023-03-05T14:35:00.880Z,8.02
2023-03-05T14:37:32.312Z,7.53
2023-03-05T14:40:05.376Z,4.85
2023-03-05T14:42:38.971Z,3.97
2023-03-05T14:45:14.527Z,3.55
2023-03-05T14:47:43.385Z,3.90
2023-03-05T14:50:13.834Z,3.83
2023-03-05T14:52:42.470Z,3.13
2023-03-05T14:55:15.567Z,5.53
2023-03-05T14:57:46.012Z,7.90
2023-03-05T15:00:18.175Z,3.72
2023-03-05T15:02:46.703Z,4.32
2023-03-05T15:05:15.208Z,4.03
2023-03-05T15:07:44.231Z,3.88
2023-03-05T15:10:13.941Z,3.85
2023-03-05T15:12:42.518Z,3.50
2023-03-05T15:15:12.969Z,5.43
2023-03-05T15:17:43.046Z,6.07
2023-03-05T15:20:15.168Z,3.85
2023-03-05T15:22:44.079Z,5.85
2023-03-05T15:25:12.921Z,4.30
2023-03-05T15:27:41.379Z,4.75
2023-03-05T15:30:11.177Z,4.07
2023-03-05T15:32:41.231Z,5.45
2023-03-05T15:35:11.301Z,3.80
2023-03-05T15:37:39.780Z,4.40
2023-03-05T15:40:08.888Z,3.95
2023-03-05T15:42:37.366Z,4.53
2023-03-05T15:45:06.185Z,3.10
2023-03-05T15:47:34.721Z,3.72
2023-03-05T15:50:04.772Z,4.03
2023-03-05T15:52:33.381Z,3.03
2023-03-05T15:55:01.875Z,2.60
2023-03-05T15:57:30.517Z,3.58
2023-03-05T15:59:59.012Z,3.05
2023-03-05T16:02:28.143Z,3.58
2023-03-05T16:04:56.871Z,3.85
2023-03-05T16:07:26.925Z,4.65
2023-03-05T16:09:56.443Z,5.25
2023-03-05T16:12:27.212Z,3.63
2023-03-05T16:14:55.808Z,5.13
2023-03-05T16:17:25.427Z,3.75
2023-03-05T16:19:55.096Z,5.53
2023-03-05T16:22:23.918Z,4.50
2023-03-05T16:24:53.800Z,4.03
2023-03-05T16:27:22.264Z,4.25
2023-03-05T16:29:51.159Z,4.25
2023-03-05T16:32:19.792Z,4.57
2023-03-05T16:34:48.502Z,4.00
2023-03-05T16:37:20.428Z,5.43
2023-03-05T16:39:49.134Z,5.82
2023-03-05T16:42:19.080Z,7.13
2023-03-05T16:44:49.890Z,5.25
2023-03-05T16:47:18.622Z,7.78
2023-03-05T16:49:47.246Z,4.40
2023-03-05T16:52:19.196Z,5.03
2023-03-05T16:54:48.500Z,5.32
2023-03-05T16:57:17.354Z,4.13
2023-03-05T16:59:47.536Z,8.23
2023-03-05T17:02:16.102Z,4.20
2023-03-05T17:04:44.757Z,5.07
2023-03-05T17:07:13.235Z,4.55
2023-03-05T17:09:41.890Z,8.63
2023-03-05T17:12:10.325Z,4.85
2023-03-05T17:14:38.901Z,4.60
2023-03-05T17:17:08.795Z,5.45
2023-03-05T17:19:37.256Z,4.90
2023-03-05T17:22:05.929Z,4.93
2023-03-05T17:24:34.390Z,4.60
2023-03-05T17:27:02.883Z,3.72
2023-03-05T17:29:31.757Z,5.07
2023-03-05T17:32:00.305Z,5.55
2023-03-05T17:34:36.303Z,4.57
2023-03-05T17:37:05.352Z,6.32
2023-03-05T17:39:33.888Z,9.48
2023-03-05T17:42:02.635Z,5.10
2023-03-05T17:44:31.862Z,5.30
2023-03-05T17:47:00.340Z,8.27
2023-03-05T17:49:30.152Z,5.50
2023-03-05T17:51:58.579Z,5.10
2023-03-05T17:54:27.153Z,7.05
2023-03-05T17:56:56.013Z,6.18
2023-03-05T17:59:24.676Z,4.65
2023-03-05T18:01:53.080Z,4.80
2023-03-05T18:04:21.616Z,6.65
2023-03-05T18:06:51.498Z,5.85
2023-03-05T18:09:20.082Z,7.07
2023-03-05T18:11:48.854Z,6.47
2023-03-05T18:14:17.434Z,5.68
2023-03-05T18:16:45.958Z,6.05
2023-03-05T18:19:14.420Z,6.35
2023-03-05T18:21:43.327Z,5.88
2023-03-05T18:24:13.177Z,6.80
2023-03-05T18:26:41.645Z,6.00
2023-03-05T18:29:10.083Z,6.05
2023-03-05T18:31:38.678Z,5.23
2023-03-05T18:34:07.150Z,6.85
2023-03-05T18:36:35.699Z,7.07
2023-03-05T18:39:04.167Z,5.07
2023-03-05T18:41:34.075Z,5.05
2023-03-05T18:44:04.495Z,5.10
2023-03-05T18:46:32.895Z,8.73
2023-03-05T18:49:01.447Z,5.47
2023-03-05T18:51:30.410Z,6.97
2023-03-05T18:53:58.916Z,5.55
2023-03-05T18:56:27.535Z,7.70
2023-03-05T18:58:58.940Z,7.43
2023-03-05T19:01:27.573Z,9.60
2023-03-05T19:03:56.207Z,7.68
2023-03-05T19:06:24.772Z,7.53
2023-03-05T19:08:57.373Z,6.88
2023-03-05T19:11:26.461Z,6.05
2023-03-05T19:13:58.141Z,6.67
2023-03-05T19:16:30.353Z,9.18
2023-03-05T19:19:05.204Z,8.13
2023-03-05T19:21:34.127Z,7.00
2023-03-05T19:24:02.889Z,6.88
2023-03-05T19:26:31.632Z,9.60
2023-03-05T19:29:00.140Z,8.27
2023-03-05T19:31:30.079Z,6.57
2023-03-05T19:33:58.606Z,8.67
2023-03-05T19:36:27.136Z,8.10
2023-03-05T19:38:55.658Z,7.60
2023-03-05T19:41:24.165Z,7.57
2023-03-05T19:43:52.704Z,8.13
2023-03-05T19:46:21.195Z,7.40
2023-03-05T19:48:51.100Z,7.28
2023-03-05T19:51:20.787Z,6.13
2023-03-05T19:53:49.699Z,6.07
2023-03-05T19:56:18.664Z,6.97
2023-03-05T19:58:49.000Z,9.97
2023-03-05T20:01:18.584Z,8.90
2023-03-05T20:03:47.841Z,8.40
2023-03-05T20:06:17.820Z,7.43
2023-03-05T20:08:46.748Z,9.33
2023-03-05T20:11:16.037Z,8.83
2023-03-05T20:13:45.017Z,9.60
2023-03-05T20:16:16.996Z,10.17
2023-03-05T20:18:45.800Z,10.03
2023-03-05T20:21:21.508Z,11.15
2023-03-05T20:23:51.571Z,10.63
2023-03-05T20:26:20.107Z,11.13
2023-03-05T20:28:48.717Z,10.40
2023-03-05T20:31:19.386Z,11.43
2023-03-05T20:33:48.104Z,11.67
2023-03-05T20:36:16.953Z,11.63
2023-03-05T20:38:45.826Z,11.90
2023-03-05T20:41:16.671Z,11.40
2023-03-05T20:43:46.336Z,12.73
2023-03-05T20:46:18.667Z,11.33
2023-03-05T20:48:48.117Z,13.13
2023-03-05T20:51:18.575Z,12.13
2023-03-05T20:53:47.067Z,11.77
2023-03-05T20:56:17.086Z,13.77
2023-03-05T20:58:45.700Z,12.47
2023-03-05T21:01:14.335Z,12.27
2023-03-05T21:03:42.869Z,12.37
2023-03-05T21:06:11.342Z,13.33
2023-03-05T21:08:39.843Z,13.37
2023-03-05T21:11:09.285Z,12.77
2023-03-05T21:13:39.140Z,12.90
2023-03-05T21:16:08.505Z,12.20
2023-03-05T21:18:37.091Z,13.23
2023-03-05T21:21:05.745Z,11.20
2023-03-05T21:23:34.289Z,11.30
2023-03-05T21:26:04.149Z,12.73
2023-03-05T21:28:33.156Z,13.23
2023-03-05T21:31:07.935Z,10.05
2023-03-05T21:33:36.412Z,12.07
2023-03-05T21:36:05.265Z,11.47
2023-03-05T21:38:34.712Z,12.90
2023-03-05T21:41:03.649Z,11.00
2023-03-05T21:43:33.074Z,11.23
2023-03-05T21:46:04.416Z,11.93
2023-03-05T21:48:33.292Z,10.50
2023-03-05T21:51:02.146Z,13.53
2023-03-05T21:53:30.911Z,10.37
2023-03-05T21:56:11.056Z,10.30
2023-03-05T21:58:39.807Z,9.10
2023-03-05T22:01:09.891Z,10.27
2023-03-05T22:03:38.887Z,10.17
2023-03-05T22:06:10.661Z,9.37
2023-03-05T22:08:39.292Z,9.83
2023-03-05T22:11:10.176Z,7.50
2023-03-05T22:13:38.817Z,9.20
2023-03-05T22:16:10.299Z,9.37
2023-03-05T22:18:39.020Z,8.93
2023-03-05T22:21:07.952Z,6.70
2023-03-05T22:23:36.706Z,6.77
2023-03-05T22:26:06.340Z,9.23
2023-03-05T22:28:35.137Z,8.67
2023-03-05T22:31:03.846Z,8.73
2023-03-05T22:33:33.664Z,9.73
2023-03-05T22:36:02.262Z,8.07
2023-03-05T22:38:30.750Z,8.13
2023-03-05T22:40:59.236Z,6.97
2023-03-05T22:43:27.682Z,8.63
2023-03-05T22:45:56.154Z,7.27
2023-03-05T22:48:24.605Z,8.30
2023-03-05T22:50:57.688Z,8.67
2023-03-05T22:53:26.143Z,9.43
2023-03-05T22:55:54.607Z,8.73
2023-03-05T22:58:23.170Z,8.60
2023-03-05T23:00:51.702Z,9.10
2023-03-05T23:03:20.221Z,12.27
2023-03-05T23:05:48.697Z,12.27
2023-03-05T23:08:18.513Z,12.23
2023-03-05T23:10:46.976Z,10.27
2023-03-05T23:13:15.471Z,10.10
2023-03-05T23:15:43.966Z,10.03
2023-03-05T23:18:14.228Z,10.90
2023-03-05T23:20:42.793Z,11.13
2023-03-05T23:23:11.175Z,11.03
2023-03-05T23:25:41.237Z,17.87
2023-03-05T23:28:09.644Z,10.90
2023-03-05T23:30:39.517Z,16.10
2023-03-05T23:33:08.946Z,12.03
2023-03-05T23:35:38.517Z,11.57
2023-03-05T23:38:07.881Z,12.90
2023-03-05T23:40:37.822Z,10.35
2023-03-05T23:43:07.638Z,13.20
2023-03-05T23:45:36.542Z,11.53
2023-03-05T23:48:04.995Z,12.73
2023-03-05T23:50:34.683Z,11.83
2023-03-05T23:53:05.131Z,11.03
2023-03-05T23:55:34.908Z,10.33
2023-03-05T23:58:04.980Z,9.53
